Time,TemperatureF,DewpointF,PressureIn,WindDirection,WindDirectionDegrees,WindSpeedMPH,WindSpeedGustMPH,Humidity,HourlyPrecipIn,Conditions,Clouds,dailyrainin,SolarRadiationWatts/m^2,SoftwareType,DateUTC
2013-05-12 00:12:00,67.0,65.0,-100.00,West,275,3.0,4.0,94,0.00,,,0.70,0.000000,,2013-05-12 05:12:00,
2013-05-12 00:22:00,67.0,65.0,-100.00,West,275,3.0,4.0,94,0.00,,,0.70,0.000000,,2013-05-12 05:22:00,
2013-05-12 00:32:00,67.0,65.0,-100.00,West,275,3.0,4.0,94,0.00,,,0.70,0.000000,,2013-05-12 05:32:00,
2013-05-12 00:42:00,67.0,65.0,-100.00,West,275,3.0,4.0,94,0.00,,,0.70,0.000000,,2013-05-12 05:42:00,
2013-05-12 00:50:00,68.0,67.0,-100.00,WNW,283,3.0,5.0,95,0.00,,,0.70,0.000000,,2013-05-12 05:50:00,
2013-05-12 01:21:00,68.0,67.0,-100.00,WNW,283,3.0,5.0,95,0.00,,,0.70,0.000000,,2013-05-12 06:21:00,
2013-05-12 01:32:00,68.0,67.0,-100.00,WNW,283,3.0,5.0,95,0.00,,,0.70,0.000000,,2013-05-12 06:32:00,
2013-05-12 01:42:00,68.0,67.0,-100.00,WNW,283,3.0,5.0,95,0.00,,,0.70,0.000000,,2013-05-12 06:42:00,
2013-05-12 01:50:00,67.0,63.0,-100.00,NW,326,3.0,9.0,86,0.00,,,0.70,0.000000,,2013-05-12 06:50:00,
2013-05-12 02:11:00,67.0,63.0,-100.00,NW,326,3.0,9.0,86,0.00,,,0.70,0.000000,,2013-05-12 07:11:00,
2013-05-12 02:21:00,67.0,63.0,-100.00,NW,326,3.0,9.0,86,0.00,,,0.70,0.000000,,2013-05-12 07:21:00,
2013-05-12 02:32:00,67.0,63.0,-100.00,NW,326,3.0,9.0,86,0.00,,,0.70,0.000000,,2013-05-12 07:32:00,
2013-05-12 02:42:00,67.0,63.0,-100.00,NW,326,3.0,9.0,86,0.00,,,0.70,0.000000,,2013-05-12 07:42:00,
2013-05-12 02:50:00,65.0,61.0,-100.00,NNW,348,4.0,8.0,87,0.00,,,0.70,0.000000,,2013-05-12 07:50:00,
2013-05-12 03:11:00,65.0,61.0,-100.00,NNW,348,4.0,8.0,87,0.00,,,0.70,0.000000,,2013-05-12 08:11:00,
2013-05-12 03:21:00,65.0,61.0,-100.00,NNW,348,4.0,8.0,87,0.00,,,0.70,0.000000,,2013-05-12 08:21:00,
2013-05-12 03:32:00,65.0,61.0,-100.00,NNW,348,4.0,8.0,87,0.00,,,0.70,0.000000,,2013-05-12 08:32:00,
2013-05-12 03:41:00,65.0,61.0,-100.00,NNW,348,4.0,8.0,87,0.00,,,0.70,0.000000,,2013-05-12 08:41:00,
2013-05-12 03:50:00,64.0,60.0,-100.00,North,350,5.0,8.0,86,0.00,,,0.70,0.000000,,2013-05-12 08:50:00,
2013-05-12 04:11:00,64.0,60.0,-100.00,North,350,5.0,8.0,86,0.00,,,0.70,0.000000,,2013-05-12 09:11:00,
2013-05-12 04:21:00,64.0,60.0,-100.00,North,350,5.0,8.0,86,0.00,,,0.70,0.000000,,2013-05-12 09:21:00,
2013-05-12 04:33:00,64.0,60.0,-100.00,North,350,5.0,8.0,86,0.00,,,0.70,0.000000,,2013-05-12 09:33:00,
2013-05-12 04:42:00,64.0,60.0,-100.00,North,350,5.0,8.0,86,0.00,,,0.70,0.000000,,2013-05-12 09:42:00,
2013-05-12 04:50:00,63.0,59.0,-100.00,North,359,5.0,8.0,87,0.00,,,0.70,0.000000,,2013-05-12 09:50:00,
2013-05-12 05:12:00,63.0,59.0,-100.00,North,359,5.0,8.0,87,0.00,,,0.70,0.000000,,2013-05-12 10:12:00,
2013-05-12 05:22:00,63.0,59.0,-100.00,North,359,5.0,8.0,87,0.00,,,0.70,0.000000,,2013-05-12 10:22:00,
2013-05-12 05:33:00,63.0,59.0,-100.00,North,359,5.0,8.0,87,0.00,,,0.70,0.000000,,2013-05-12 10:33:00,
2013-05-12 05:42:00,63.0,59.0,-100.00,North,359,5.0,8.0,87,0.00,,,0.70,0.000000,,2013-05-12 10:42:00,
2013-05-12 05:50:00,61.0,58.0,-100.00,North,3,3.0,7.0,89,0.00,,,0.70,0.000000,,2013-05-12 10:50:00,
2013-05-12 06:12:00,61.0,58.0,-100.00,North,3,3.0,7.0,89,0.00,,,0.70,0.000000,,2013-05-12 11:12:00,
2013-05-12 06:22:00,61.0,58.0,-100.00,North,3,3.0,7.0,89,0.00,,,0.70,0.000000,,2013-05-12 11:22:00,
2013-05-12 06:32:00,61.0,58.0,-100.00,North,3,3.0,7.0,89,0.00,,,0.70,0.000000,,2013-05-12 11:32:00,
2013-05-12 06:42:00,61.0,58.0,-100.00,North,3,3.0,7.0,89,0.00,,,0.70,0.000000,,2013-05-12 11:42:00,
2013-05-12 06:50:00,61.0,57.0,-100.00,North,0,5.0,8.0,88,0.00,,,0.70,27.000000,,2013-05-12 11:50:00,
2013-05-12 07:11:00,61.0,57.0,-100.00,North,0,5.0,8.0,88,0.00,,,0.70,27.000000,,2013-05-12 12:11:00,
2013-05-12 07:21:00,61.0,57.0,-100.00,North,0,5.0,8.0,88,0.00,,,0.70,27.000000,,2013-05-12 12:21:00,
2013-05-12 07:32:00,61.0,57.0,-100.00,North,0,5.0,8.0,88,0.00,,,0.70,27.000000,,2013-05-12 12:32:00,
2013-05-12 07:41:00,61.0,57.0,-100.00,North,0,5.0,8.0,88,0.00,,,0.70,27.000000,,2013-05-12 12:41:00,
2013-05-12 07:50:00,65.0,58.0,-100.00,NNE,20,4.0,8.0,78,0.00,,,0.15,191.000000,,2013-05-12 12:50:00,
2013-05-12 08:11:00,65.0,58.0,-100.00,NNE,20,4.0,8.0,78,0.00,,,0.15,191.000000,,2013-05-12 13:11:00,
2013-05-12 08:21:00,65.0,58.0,-100.00,NNE,20,4.0,8.0,78,0.00,,,0.15,191.000000,,2013-05-12 13:21:00,
2013-05-12 08:32:00,65.0,58.0,-100.00,NNE,20,4.0,8.0,78,0.00,,,0.15,191.000000,,2013-05-12 13:32:00,
2013-05-12 08:42:00,65.0,58.0,-100.00,NNE,20,4.0,8.0,78,0.00,,,0.15,191.000000,,2013-05-12 13:42:00,
2013-05-12 08:50:00,68.0,56.0,-100.00,NE,42,7.0,11.0,65,0.00,,,0.01,370.000000,,2013-05-12 13:50:00,
2013-05-12 09:21:00,68.0,56.0,-100.00,NE,42,7.0,11.0,65,0.00,,,0.01,370.000000,,2013-05-12 14:21:00,
2013-05-12 09:32:00,68.0,56.0,-100.00,NE,42,7.0,11.0,65,0.00,,,0.01,370.000000,,2013-05-12 14:32:00,
2013-05-12 09:42:00,68.0,56.0,-100.00,NE,42,7.0,11.0,65,0.00,,,0.01,370.000000,,2013-05-12 14:42:00,
2013-05-12 09:50:00,72.0,55.0,-100.00,NNE,21,7.0,15.0,55,0.00,,,0.00,595.000000,,2013-05-12 14:50:00,
2013-05-12 10:21:00,72.0,55.0,-100.00,NNE,21,7.0,15.0,55,0.00,,,0.00,595.000000,,2013-05-12 15:21:00,
2013-05-12 10:34:00,72.0,55.0,-100.00,NNE,21,7.0,15.0,55,0.00,,,0.00,595.000000,,2013-05-12 15:34:00,
2013-05-12 10:42:00,72.0,55.0,-100.00,NNE,21,7.0,15.0,55,0.00,,,0.00,595.000000,,2013-05-12 15:42:00,
2013-05-12 10:50:00,73.0,52.0,-100.00,NNE,31,9.0,17.0,48,0.00,,,0.00,637.000000,,2013-05-12 15:50:00,
2013-05-12 11:12:00,73.0,52.0,-100.00,NNE,31,9.0,17.0,48,0.00,,,0.00,637.000000,,2013-05-12 16:12:00,
2013-05-12 11:23:00,73.0,52.0,-100.00,NNE,31,9.0,17.0,48,0.00,,,0.00,637.000000,,2013-05-12 16:23:00,
2013-05-12 11:33:00,73.0,52.0,-100.00,NNE,31,9.0,17.0,48,0.00,,,0.00,637.000000,,2013-05-12 16:33:00,
2013-05-12 11:42:00,73.0,52.0,-100.00,NNE,31,9.0,17.0,48,0.00,,,0.00,637.000000,,2013-05-12 16:42:00,
2013-05-12 11:50:00,75.0,53.0,-100.00,NNE,21,8.0,17.0,47,0.00,,,0.00,866.000000,,2013-05-12 16:50:00,
2013-05-12 12:12:00,75.0,53.0,-100.00,NNE,21,8.0,17.0,47,0.00,,,0.00,866.000000,,2013-05-12 17:12:00,
2013-05-12 12:22:00,75.0,53.0,-100.00,NNE,21,8.0,17.0,47,0.00,,,0.00,866.000000,,2013-05-12 17:22:00,
2013-05-12 12:32:00,75.0,53.0,-100.00,NNE,21,8.0,17.0,47,0.00,,,0.00,866.000000,,2013-05-12 17:32:00,
2013-05-12 12:42:00,75.0,53.0,-100.00,NNE,21,8.0,17.0,47,0.00,,,0.00,866.000000,,2013-05-12 17:42:00,
2013-05-12 12:50:00,76.0,54.0,-100.00,NNE,30,5.0,15.0,47,0.00,,,0.00,731.000000,,2013-05-12 17:50:00,
2013-05-12 13:12:00,76.0,54.0,-100.00,NNE,30,5.0,15.0,47,0.00,,,0.00,731.000000,,2013-05-12 18:12:00,
2013-05-12 13:22:00,76.0,54.0,-100.00,NNE,30,5.0,15.0,47,0.00,,,0.00,731.000000,,2013-05-12 18:22:00,
2013-05-12 13:32:00,76.0,54.0,-100.00,NNE,30,5.0,15.0,47,0.00,,,0.00,731.000000,,2013-05-12 18:32:00,
2013-05-12 13:42:00,76.0,54.0,-100.00,NNE,30,5.0,15.0,47,0.00,,,0.00,731.000000,,2013-05-12 18:42:00,
2013-05-12 13:50:00,76.0,53.0,-100.00,North,360,6.0,14.0,45,0.00,,,0.00,615.000000,,2013-05-12 18:50:00,
2013-05-12 14:11:00,76.0,53.0,-100.00,North,360,6.0,14.0,45,0.00,,,0.00,615.000000,,2013-05-12 19:11:00,
2013-05-12 14:21:00,76.0,53.0,-100.00,North,360,6.0,14.0,45,0.00,,,0.00,615.000000,,2013-05-12 19:21:00,
2013-05-12 14:32:00,76.0,53.0,-100.00,North,360,6.0,14.0,45,0.00,,,0.00,615.000000,,2013-05-12 19:32:00,
2013-05-12 14:42:00,76.0,53.0,-100.00,North,360,6.0,14.0,45,0.00,,,0.00,615.000000,,2013-05-12 19:42:00,
2013-05-12 14:50:00,76.0,55.0,-100.00,NNW,342,6.0,10.0,48,0.00,,,0.00,479.000000,,2013-05-12 19:50:00,
2013-05-12 15:11:00,76.0,55.0,-100.00,NNW,342,6.0,10.0,48,0.00,,,0.00,479.000000,,2013-05-12 20:11:00,
2013-05-12 15:21:00,76.0,55.0,-100.00,NNW,342,6.0,10.0,48,0.00,,,0.00,479.000000,,2013-05-12 20:21:00,
2013-05-12 15:32:00,76.0,55.0,-100.00,NNW,342,6.0,10.0,48,0.00,,,0.00,479.000000,,2013-05-12 20:32:00,
2013-05-12 15:42:00,76.0,55.0,-100.00,NNW,342,6.0,10.0,48,0.00,,,0.00,479.000000,,2013-05-12 20:42:00,
2013-05-12 15:50:00,77.0,54.0,-100.00,NNW,348,8.0,14.0,45,0.00,,,0.00,661.000000,,2013-05-12 20:50:00,
2013-05-12 16:11:00,77.0,54.0,-100.00,NNW,348,8.0,14.0,45,0.00,,,0.00,661.000000,,2013-05-12 21:11:00,
2013-05-12 16:21:00,77.0,54.0,-100.00,NNW,348,8.0,14.0,45,0.00,,,0.00,661.000000,,2013-05-12 21:21:00,
2013-05-12 16:33:00,77.0,54.0,-100.00,NNW,348,8.0,14.0,45,0.00,,,0.00,661.000000,,2013-05-12 21:33:00,
2013-05-12 16:42:00,77.0,54.0,-100.00,NNW,348,8.0,14.0,45,0.00,,,0.00,661.000000,,2013-05-12 21:42:00,
2013-05-12 16:50:00,79.0,55.0,-100.00,NNW,333,7.0,16.0,44,0.00,,,0.00,572.000000,,2013-05-12 21:50:00,
2013-05-12 17:23:00,79.0,55.0,-100.00,NNW,333,7.0,16.0,44,0.00,,,0.00,572.000000,,2013-05-12 22:23:00,
2013-05-12 17:33:00,79.0,55.0,-100.00,NNW,333,7.0,16.0,44,0.00,,,0.00,572.000000,,2013-05-12 22:33:00,
2013-05-12 17:42:00,79.0,55.0,-100.00,NNW,333,7.0,16.0,44,0.00,,,0.00,572.000000,,2013-05-12 22:42:00,
2013-05-12 17:50:00,77.0,53.0,-100.00,North,354,7.0,14.0,44,0.00,,,0.00,391.000000,,2013-05-12 22:50:00,
2013-05-12 18:12:00,77.0,53.0,-100.00,North,354,7.0,14.0,44,0.00,,,0.00,391.000000,,2013-05-12 23:12:00,
2013-05-12 18:22:00,77.0,53.0,-100.00,North,354,7.0,14.0,44,0.00,,,0.00,391.000000,,2013-05-12 23:22:00,
2013-05-12 18:32:00,77.0,53.0,-100.00,North,354,7.0,14.0,44,0.00,,,0.00,391.000000,,2013-05-12 23:32:00,
2013-05-12 18:42:00,77.0,53.0,-100.00,North,354,7.0,14.0,44,0.00,,,0.00,391.000000,,2013-05-12 23:42:00,
2013-05-12 18:50:00,77.0,54.0,-100.00,NW,319,3.0,10.0,45,0.00,,,0.00,166.000000,,2013-05-12 23:50:00,
2013-05-12 19:21:00,77.0,54.0,-100.00,NW,319,3.0,10.0,45,0.00,,,0.00,166.000000,,2013-05-13 00:21:00,
2013-05-12 19:32:00,77.0,54.0,-100.00,NW,319,3.0,10.0,45,0.00,,,0.00,166.000000,,2013-05-13 00:32:00,
2013-05-12 19:42:00,77.0,54.0,-100.00,NW,319,3.0,10.0,45,0.00,,,0.00,166.000000,,2013-05-13 00:42:00,
2013-05-12 19:50:00,72.0,54.0,-100.00,NNW,348,4.0,12.0,54,0.00,,,0.00,51.000000,,2013-05-13 00:50:00,
2013-05-12 20:11:00,72.0,54.0,-100.00,NNW,348,4.0,12.0,54,0.00,,,0.00,51.000000,,2013-05-13 01:11:00,
2013-05-12 20:22:00,72.0,54.0,-100.00,NNW,348,4.0,12.0,54,0.00,,,0.00,51.000000,,2013-05-13 01:22:00,
2013-05-12 20:31:00,72.0,54.0,-100.00,NNW,348,4.0,12.0,54,0.00,,,0.00,51.000000,,2013-05-13 01:31:00,
2013-05-12 20:42:00,72.0,54.0,-100.00,NNW,348,4.0,12.0,54,0.00,,,0.00,51.000000,,2013-05-13 01:42:00,
2013-05-12 20:50:00,69.0,57.0,-100.00,North,359,3.0,5.0,65,0.00,,,0.00,0.000000,,2013-05-13 01:50:00,
2013-05-12 21:11:00,69.0,57.0,-100.00,North,359,3.0,5.0,65,0.00,,,0.00,0.000000,,2013-05-13 02:11:00,
2013-05-12 21:21:00,69.0,57.0,-100.00,North,359,3.0,5.0,65,0.00,,,0.00,0.000000,,2013-05-13 02:21:00,
2013-05-12 21:32:00,69.0,57.0,-100.00,North,359,3.0,5.0,65,0.00,,,0.00,0.000000,,2013-05-13 02:32:00,
2013-05-12 21:41:00,69.0,57.0,-100.00,North,359,3.0,5.0,65,0.00,,,0.00,0.000000,,2013-05-13 02:41:00,
2013-05-12 21:50:00,67.0,54.0,-100.00,North,8,3.0,8.0,63,0.00,,,0.00,0.000000,,2013-05-13 02:50:00,
2013-05-12 22:11:00,67.0,54.0,-100.00,North,8,3.0,8.0,63,0.00,,,0.00,0.000000,,2013-05-13 03:11:00,
2013-05-12 22:21:00,67.0,54.0,-100.00,North,8,3.0,8.0,63,0.00,,,0.00,0.000000,,2013-05-13 03:21:00,
2013-05-12 22:32:00,67.0,54.0,-100.00,North,8,3.0,8.0,63,0.00,,,0.00,0.000000,,2013-05-13 03:32:00,
2013-05-12 22:42:00,67.0,54.0,-100.00,North,8,3.0,8.0,63,0.00,,,0.00,0.000000,,2013-05-13 03:42:00,
2013-05-12 22:50:00,65.0,54.0,-100.00,North,0,4.0,8.0,67,0.00,,,0.00,0.000000,,2013-05-13 03:50:00,
2013-05-12 23:12:00,65.0,54.0,-100.00,North,0,4.0,8.0,67,0.00,,,0.00,0.000000,,2013-05-13 04:12:00,
2013-05-12 23:23:00,65.0,54.0,-100.00,North,0,4.0,8.0,67,0.00,,,0.00,0.000000,,2013-05-13 04:23:00,
2013-05-12 23:32:00,65.0,54.0,-100.00,North,0,4.0,8.0,67,0.00,,,0.00,0.000000,,2013-05-13 04:32:00,
2013-05-12 23:42:00,65.0,54.0,-100.00,North,0,4.0,8.0,67,0.00,,,0.00,0.000000,,2013-05-13 04:42:00,
2013-05-12 23:50:00,63.0,53.0,-100.00,North,3,5.0,8.0,69,0.00,,,0.00,0.000000,,2013-05-13 04:50:00,